El Paso, TX (88541)

10:58 AM MST on December 26, 2014 (GMT -0700)
Vista del Sol | Change Station
CLOSE
Current Station
Personal Weather Station
Location: El Paso, TX
Elevation: 4010 ft
Nearby Weather Stations

Elev 4010 ft 31.76 °N, 106.34 °W | Updated 2 minutes ago

Rain
Rain
36.2 °F
Feels Like 36 °F
N
0.0
Wind Variable Wind from SE
Gusts 4.0 mph

Today
High -- | Low -- °F
--% Chance of Precip.
Yesterday
High -- | Low -- °F
Precip. -- in
7:03 AM 5:08 PM
Waxing Crescent, 28% visible
Pressure 29.91 in
Visibility 10.0 miles
Clouds Few 1500 ft
Overcast 4000 ft
Windchill 36 °F
Dew Point 35 °F
Humidity 94%
Rainfall 0.15 in
Snow Depth Not available.
UV 1 out of 12
Pollen 8.40 out of 12
Air Quality Not available.
Flu Activity Not available.
METAR KELP 261751Z 20006KT 10SM -RASN FEW015 OVC040 03/02 A2997 RMK AO2 SNB07 SLP126 MTNS OBSCD SW CLDS TPG MTNS W-NW 931000 P0001 60011 T00280017 10072 20022 51008

More Conditions Fewer Conditions

Pressure 29.91 in
Visibility 10.0 miles
Clouds Few 1500 ft
Overcast 4000 ft
Windchill 36 °F
Dew Point 35 °F
Humidity 94%
Rainfall 0.15 in
Snow Depth Not available.
UV 1 out of 12
Pollen 8.40 out of 12
Air Quality Not available.
Flu Activity Not available.
METAR KELP 261751Z 20006KT 10SM -RASN FEW015 OVC040 03/02 A2997 RMK AO2 SNB07 SLP126 MTNS OBSCD SW CLDS TPG MTNS W-NW 931000 P0001 60011 T00280017 10072 20022 51008

More Conditions Fewer Conditions

Nowcast | as of 8:58 am MST on December 26, 2014

A mixture of rain and snow will continue through the morning hours. Up to one inch of additional snow fall is possible...mainly El Paso east. With the warm ground...roads should remain mostly wet with some slush. Snow packed roads should not be an issue. Clouds will begin diminishing this afternoon.

×

10-Day Weather Forecast

Almanac

Astronomy

Dec. 26, 2014 Rise Set
Actual Time
Civil Twilight
Nautical Twilight
Astronomical Twilight
Moon
Length of Visible Light
Length of Day
Tomorrow will be .
, % of the Moon is Illuminated

Today's Extremes

State Highs State Lows

Community

WunderPhotos

Upload Photos

1,780,654 photos uploaded!

WunderBlogs® & News

Nearby

Air Quality

  Air Quality AQ Index Pollutant
Not available.

Snow Depth

Station Depth Elevation

Earthquake Activity

City Distance Mag. Time & Date
Minimum magnitude displayed is 2.5.

Coastal Water Temperatures

Place Temperature

Nearby Weather Stations